NCAR-RAP Real-Time Weather Data

Output produced by METARs form (24 July 2017  08:48 UTC)
found at http://weather.rap.ucar.edu/surface/
 
Conditions at: KCGC observed 24 July 2017  08:35 UTC
Temperature: 24.0°C (75°F)
Dewpoint: 23.0°C (73°F) [RH = 94%]
Pressure (altimeter): 30.00 inches Hg (1016.0 mb)
Winds: calm
Visibility: 10 or more miles (16+ km)
Ceiling: at least 12,000 feet AGL
Clouds: sky clear below 12,000 feet AGL
Present Weather: automated observation with no human augmentation;
there may or may not be significant weather present at this time
KCGC 240835Z AUTO 00000KT 10SM CLR 24/23 A3000 RMK AO2 LTG DSNT NW

Conditions at: KCGC observed 24 July 2017  08:15 UTC
Temperature: 24.0°C (75°F)
Dewpoint: 23.0°C (73°F) [RH = 94%]
Pressure (altimeter): 30.00 inches Hg (1016.0 mb)
Winds: calm
Visibility: 10 or more miles (16+ km)
Ceiling: at least 12,000 feet AGL
Clouds: sky clear below 12,000 feet AGL
Present Weather: automated observation with no human augmentation;
there may or may not be significant weather present at this time
KCGC 240815Z AUTO 00000KT 10SM CLR 24/23 A3000 RMK AO2 LTG DSNT NW

Conditions at: KCGC observed 24 July 2017  07:55 UTC
Temperature: 24.0°C (75°F)
Dewpoint: 23.0°C (73°F) [RH = 94%]
Pressure (altimeter): 30.00 inches Hg (1016.0 mb)
Winds: calm
Visibility: 10 or more miles (16+ km)
Ceiling: at least 12,000 feet AGL
Clouds: scattered clouds at 12000 feet AGL
Present Weather: VCTS  (thunderstorm in vicinity)
KCGC 240755Z AUTO 00000KT 10SM VCTS SCT120 24/23 A3000 RMK AO2

Conditions at: KCGC observed 24 July 2017  07:35 UTC
Temperature: 24.0°C (75°F)
Dewpoint: 23.0°C (73°F) [RH = 94%]
Pressure (altimeter): 30.01 inches Hg (1016.3 mb)
Winds: calm
Visibility: 10 or more miles (16+ km)
Ceiling: at least 12,000 feet AGL
Clouds: sky clear below 12,000 feet AGL
Present Weather: VCTS  (thunderstorm in vicinity)
KCGC 240735Z AUTO 00000KT 10SM VCTS CLR 24/23 A3001 RMK AO2 LTG DSNT W THRU N

Conditions at: KCGC observed 24 July 2017  07:15 UTC
Temperature: 23.0°C (73°F)
Dewpoint: 23.0°C (73°F) [RH = 100%]
Pressure (altimeter): 30.01 inches Hg (1016.3 mb)
Winds: calm
Visibility: 10 or more miles (16+ km)
Ceiling: at least 12,000 feet AGL
Clouds: scattered clouds at 2700 feet AGL
Present Weather: TS  (thunderstorm)
KCGC 240715Z AUTO 00000KT 10SM TS SCT027 23/23 A3001 RMK AO2 LTG DSNT SW THRU N

Conditions at: KCGC observed 24 July 2017  06:55 UTC
Temperature: 23.0°C (73°F)
Dewpoint: 23.0°C (73°F) [RH = 100%]
Pressure (altimeter): 30.02 inches Hg (1016.7 mb)
Winds: calm
Visibility: 10 or more miles (16+ km)
Ceiling: at least 12,000 feet AGL
Clouds: scattered clouds at 2700 feet AGL
Present Weather: TS  (thunderstorm)
KCGC 240655Z AUTO 00000KT 10SM TS SCT027 23/23 A3002 RMK AO2 LTG DSNT N S AND NW

Conditions at: KCGC observed 24 July 2017  06:35 UTC
Temperature: 23.0°C (73°F)
Dewpoint: 23.0°C (73°F) [RH = 100%]
Pressure (altimeter): 30.02 inches Hg (1016.7 mb)
Winds: calm
Visibility: 10 or more miles (16+ km)
Ceiling: at least 12,000 feet AGL
Clouds: sky clear below 12,000 feet AGL
Present Weather: TS  (thunderstorm)
KCGC 240635Z AUTO 00000KT 10SM TS CLR 23/23 A3002 RMK AO2 LTG DSNT W THRU N

Conditions at: KCGC observed 24 July 2017  06:15 UTC
Temperature: 23.0°C (73°F)
Dewpoint: 23.0°C (73°F) [RH = 100%]
Pressure (altimeter): 30.02 inches Hg (1016.7 mb)
Winds: calm
Visibility: 10 or more miles (16+ km)
Ceiling: at least 12,000 feet AGL
Clouds: sky clear below 12,000 feet AGL
Present Weather: VCTS  (thunderstorm in vicinity)
KCGC 240615Z AUTO 00000KT 10SM VCTS CLR 23/23 A3002 RMK AO2 LTG DSNT N AND NW

Conditions at: KCGC observed 24 July 2017  05:55 UTC
Temperature: 23.0°C (73°F)
Dewpoint: 23.0°C (73°F) [RH = 100%]
Pressure (altimeter): 30.02 inches Hg (1016.7 mb)
Winds: calm
Visibility: 10 or more miles (16+ km)
Ceiling: at least 12,000 feet AGL
Clouds: sky clear below 12,000 feet AGL
Present Weather: VCTS  (thunderstorm in vicinity)
KCGC 240555Z AUTO 00000KT 10SM VCTS CLR 23/23 A3002 RMK AO2 LTG DSNT NW

Conditions at: KCGC observed 24 July 2017  05:35 UTC
Temperature: 24.0°C (75°F)
Dewpoint: 23.0°C (73°F) [RH = 94%]
Pressure (altimeter): 30.02 inches Hg (1016.7 mb)
Winds: calm
Visibility: 10 or more miles (16+ km)
Ceiling: at least 12,000 feet AGL
Clouds: sky clear below 12,000 feet AGL
Present Weather: automated observation with no human augmentation;
there may or may not be significant weather present at this time
KCGC 240535Z AUTO 00000KT 10SM CLR 24/23 A3002 RMK AO2 LTG DSNT N

Conditions at: KCGC observed 24 July 2017  05:15 UTC
Temperature: 24.0°C (75°F)
Dewpoint: 23.0°C (73°F) [RH = 94%]
Pressure (altimeter): 30.03 inches Hg (1017.0 mb)
Winds: calm
Visibility: 10 or more miles (16+ km)
Ceiling: at least 12,000 feet AGL
Clouds: sky clear below 12,000 feet AGL
Present Weather: automated observation with no human augmentation;
there may or may not be significant weather present at this time
KCGC 240515Z AUTO 00000KT 10SM CLR 24/23 A3003 RMK AO2 LTG DSNT N

Conditions at: KCGC observed 24 July 2017  04:55 UTC
Temperature: 24.0°C (75°F)
Dewpoint: 23.0°C (73°F) [RH = 94%]
Pressure (altimeter): 30.03 inches Hg (1017.0 mb)
Winds: calm
Visibility: 10 or more miles (16+ km)
Ceiling: at least 12,000 feet AGL
Clouds: sky clear below 12,000 feet AGL
Present Weather: -RA  (light rain)
KCGC 240455Z AUTO 00000KT 10SM -RA CLR 24/23 A3003 RMK AO2 LTG DSNT E AND NW

Conditions at: KCGC observed 24 July 2017  04:35 UTC
Temperature: 24.0°C (75°F)
Dewpoint: 23.0°C (73°F) [RH = 94%]
Pressure (altimeter): 30.03 inches Hg (1017.0 mb)
Winds: calm
Visibility: 10 or more miles (16+ km)
Ceiling: at least 12,000 feet AGL
Clouds: sky clear below 12,000 feet AGL
Present Weather: automated observation with no human augmentation;
there may or may not be significant weather present at this time
KCGC 240435Z AUTO 00000KT 10SM CLR 24/23 A3003 RMK AO2 LTG DSNT N

Conditions at: KCGC observed 24 July 2017  04:15 UTC
Temperature: 23.0°C (73°F)
Dewpoint: 23.0°C (73°F) [RH = 100%]
Pressure (altimeter): 30.04 inches Hg (1017.4 mb)
Winds: calm
Visibility: 10 or more miles (16+ km)
Ceiling: at least 12,000 feet AGL
Clouds: sky clear below 12,000 feet AGL
Present Weather: automated observation with no human augmentation;
there may or may not be significant weather present at this time
KCGC 240415Z AUTO 00000KT 10SM CLR 23/23 A3004 RMK AO2

Conditions at: KCGC observed 24 July 2017  03:55 UTC
Temperature: 23.0°C (73°F)
Dewpoint: 23.0°C (73°F) [RH = 100%]
Pressure (altimeter): 30.04 inches Hg (1017.4 mb)
Winds: calm
Visibility: 10 or more miles (16+ km)
Ceiling: at least 12,000 feet AGL
Clouds: sky clear below 12,000 feet AGL
Present Weather: automated observation with no human augmentation;
there may or may not be significant weather present at this time
KCGC 240355Z AUTO 00000KT 10SM CLR 23/23 A3004 RMK AO2

Conditions at: KCGC observed 24 July 2017  03:35 UTC
Temperature: 23.0°C (73°F)
Dewpoint: 23.0°C (73°F) [RH = 100%]
Pressure (altimeter): 30.03 inches Hg (1017.0 mb)
Winds: calm
Visibility: 10 or more miles (16+ km)
Ceiling: at least 12,000 feet AGL
Clouds: sky clear below 12,000 feet AGL
Present Weather: automated observation with no human augmentation;
there may or may not be significant weather present at this time
KCGC 240335Z AUTO 00000KT 10SM CLR 23/23 A3003 RMK AO2

Conditions at: KCGC observed 24 July 2017  03:15 UTC
Temperature: 24.0°C (75°F)
Dewpoint: 23.0°C (73°F) [RH = 94%]
Pressure (altimeter): 30.03 inches Hg (1017.0 mb)
Winds: calm
Visibility: 10 or more miles (16+ km)
Ceiling: at least 12,000 feet AGL
Clouds: sky clear below 12,000 feet AGL
Present Weather: automated observation with no human augmentation;
there may or may not be significant weather present at this time
KCGC 240315Z AUTO 00000KT 10SM CLR 24/23 A3003 RMK AO2

Conditions at: KCGC observed 24 July 2017  02:55 UTC
Temperature: 24.0°C (75°F)
Dewpoint: 23.0°C (73°F) [RH = 94%]
Pressure (altimeter): 30.02 inches Hg (1016.7 mb)
Winds: calm
Visibility: 10 or more miles (16+ km)
Ceiling: at least 12,000 feet AGL
Clouds: sky clear below 12,000 feet AGL
Present Weather: automated observation with no human augmentation;
there may or may not be significant weather present at this time
KCGC 240255Z AUTO 00000KT 10SM CLR 24/23 A3002 RMK AO2

Conditions at: KCGC observed 24 July 2017  02:35 UTC
Temperature: 24.0°C (75°F)
Dewpoint: 23.0°C (73°F) [RH = 94%]
Pressure (altimeter): 30.01 inches Hg (1016.3 mb)
Winds: calm
Visibility: 10 or more miles (16+ km)
Ceiling: at least 12,000 feet AGL
Clouds: scattered clouds at 1700 feet AGL
Present Weather: automated observation with no human augmentation;
there may or may not be significant weather present at this time
KCGC 240235Z AUTO 00000KT 10SM SCT017 24/23 A3001 RMK AO2

Conditions at: KCGC observed 24 July 2017  02:15 UTC
Temperature: 24.0°C (75°F)
Dewpoint: 23.0°C (73°F) [RH = 94%]
Pressure (altimeter): 30.01 inches Hg (1016.3 mb)
Winds: calm
Visibility: 10 or more miles (16+ km)
Ceiling: at least 12,000 feet AGL
Clouds: scattered clouds at 1700 feet AGL
Present Weather: automated observation with no human augmentation;
there may or may not be significant weather present at this time
KCGC 240215Z AUTO 00000KT 10SM SCT017 24/23 A3001 RMK AO2

Conditions at: KCGC observed 24 July 2017  01:55 UTC
Temperature: 24.0°C (75°F)
Dewpoint: 23.0°C (73°F) [RH = 94%]
Pressure (altimeter): 30.00 inches Hg (1016.0 mb)
Winds: calm
Visibility: 10 or more miles (16+ km)
Ceiling: at least 12,000 feet AGL
Clouds: scattered clouds at 1700 feet AGL
Present Weather: automated observation with no human augmentation;
there may or may not be significant weather present at this time
KCGC 240155Z AUTO 00000KT 10SM SCT017 24/23 A3000 RMK AO2

Conditions at: KCGC observed 24 July 2017  01:35 UTC
Temperature: 24.0°C (75°F)
Dewpoint: 23.0°C (73°F) [RH = 94%]
Pressure (altimeter): 30.00 inches Hg (1016.0 mb)
Winds: calm
Visibility: 10 or more miles (16+ km)
Ceiling: at least 12,000 feet AGL
Clouds: sky clear below 12,000 feet AGL
Present Weather: automated observation with no human augmentation;
there may or may not be significant weather present at this time
KCGC 240135Z AUTO 00000KT 10SM CLR 24/23 A3000 RMK AO2

Conditions at: KCGC observed 24 July 2017  01:15 UTC
Temperature: 24.0°C (75°F)
Dewpoint: 23.0°C (73°F) [RH = 94%]
Pressure (altimeter): 29.99 inches Hg (1015.7 mb)
Winds: calm
Visibility: 10 or more miles (16+ km)
Ceiling: at least 12,000 feet AGL
Clouds: sky clear below 12,000 feet AGL
Present Weather: automated observation with no human augmentation;
there may or may not be significant weather present at this time
KCGC 240115Z AUTO 00000KT 10SM CLR 24/23 A2999 RMK AO2

Conditions at: KCGC observed 24 July 2017  00:55 UTC
Temperature: 24.0°C (75°F)
Dewpoint: 23.0°C (73°F) [RH = 94%]
Pressure (altimeter): 30.00 inches Hg (1016.0 mb)
Winds: calm
Visibility: 10 or more miles (16+ km)
Ceiling: at least 12,000 feet AGL
Clouds: sky clear below 12,000 feet AGL
Present Weather: automated observation with no human augmentation;
there may or may not be significant weather present at this time
KCGC 240055Z AUTO 00000KT 10SM CLR 24/23 A3000 RMK AO2

Conditions at: KCGC observed 24 July 2017  00:35 UTC
Temperature: 25.0°C (77°F)
Dewpoint: 23.0°C (73°F) [RH = 89%]
Pressure (altimeter): 29.99 inches Hg (1015.7 mb)
Winds: calm
Visibility: 10 or more miles (16+ km)
Ceiling: at least 12,000 feet AGL
Clouds: sky clear below 12,000 feet AGL
Present Weather: automated observation with no human augmentation;
there may or may not be significant weather present at this time
KCGC 240035Z AUTO 00000KT 10SM CLR 25/23 A2999 RMK AO2

Conditions at: KCGC observed 24 July 2017  00:15 UTC
Temperature: 25.0°C (77°F)
Dewpoint: 23.0°C (73°F) [RH = 89%]
Pressure (altimeter): 29.99 inches Hg (1015.7 mb)
Winds: calm
Visibility: 10 or more miles (16+ km)
Ceiling: at least 12,000 feet AGL
Clouds: sky clear below 12,000 feet AGL
Present Weather: automated observation with no human augmentation;
there may or may not be significant weather present at this time
KCGC 240015Z AUTO 00000KT 10SM CLR 25/23 A2999 RMK AO2

Conditions at: KCGC observed 23 July 2017  23:55 UTC
Temperature: 25.0°C (77°F)
Dewpoint: 23.0°C (73°F) [RH = 89%]
Pressure (altimeter): 29.98 inches Hg (1015.3 mb)
Winds: calm
Visibility: 10 or more miles (16+ km)
Ceiling: at least 12,000 feet AGL
Clouds: scattered clouds at 4900 feet AGL
scattered clouds at 10000 feet AGL
scattered clouds at 12000 feet AGL
Present Weather: -DZ  (light drizzle)
KCGC 232355Z AUTO 00000KT 10SM -DZ SCT049 SCT100 SCT120 25/23 A2998 RMK AO2

Conditions at: KCGC observed 23 July 2017  23:35 UTC
Temperature: 25.0°C (77°F)
Dewpoint: 23.0°C (73°F) [RH = 89%]
Pressure (altimeter): 29.99 inches Hg (1015.7 mb)
Winds: calm
Visibility: 10 or more miles (16+ km)
Ceiling: 12000 feet AGL
Clouds: scattered clouds at 4500 feet AGL
scattered clouds at 5500 feet AGL
broken clouds at 12000 feet AGL
Present Weather: -DZ  (light drizzle)
KCGC 232335Z AUTO 00000KT 10SM -DZ SCT045 SCT055 BKN120 25/23 A2999 RMK AO2

Conditions at: KCGC observed 23 July 2017  23:15 UTC
Temperature: 25.0°C (77°F)
Dewpoint: 23.0°C (73°F) [RH = 89%]
Pressure (altimeter): 29.99 inches Hg (1015.7 mb)
Winds: calm
Visibility: 10 or more miles (16+ km)
Ceiling: at least 12,000 feet AGL
Clouds: sky clear below 12,000 feet AGL
Present Weather: automated observation with no human augmentation;
there may or may not be significant weather present at this time
KCGC 232315Z AUTO 00000KT 10SM CLR 25/23 A2999 RMK AO2

Conditions at: KCGC observed 23 July 2017  22:55 UTC
Temperature: 25.0°C (77°F)
Dewpoint: 23.0°C (73°F) [RH = 89%]
Pressure (altimeter): 29.99 inches Hg (1015.7 mb)
Winds: calm
Visibility: 10 or more miles (16+ km)
Ceiling: at least 12,000 feet AGL
Clouds: sky clear below 12,000 feet AGL
Present Weather: automated observation with no human augmentation;
there may or may not be significant weather present at this time
KCGC 232255Z AUTO 00000KT 10SM CLR 25/23 A2999 RMK AO2

Conditions at: KCGC observed 23 July 2017  22:35 UTC
Temperature: 25.0°C (77°F)
Dewpoint: 23.0°C (73°F) [RH = 89%]
Pressure (altimeter): 29.98 inches Hg (1015.3 mb)
Winds: calm
Visibility: 10 or more miles (16+ km)
Ceiling: at least 12,000 feet AGL
Clouds: scattered clouds at 12000 feet AGL
Present Weather: automated observation with no human augmentation;
there may or may not be significant weather present at this time
KCGC 232235Z AUTO 00000KT 10SM SCT120 25/23 A2998 RMK AO2

Conditions at: KCGC observed 23 July 2017  22:15 UTC
Temperature: 25.0°C (77°F)
Dewpoint: 23.0°C (73°F) [RH = 89%]
Pressure (altimeter): 29.98 inches Hg (1015.3 mb)
Winds: calm
Visibility: 10 or more miles (16+ km)
Ceiling: at least 12,000 feet AGL
Clouds: scattered clouds at 700 feet AGL
Present Weather: automated observation with no human augmentation;
there may or may not be significant weather present at this time
KCGC 232215Z AUTO 00000KT 10SM SCT007 25/23 A2998 RMK AO2

Conditions at: KCGC observed 23 July 2017  21:55 UTC
Temperature: 25.0°C (77°F)
Dewpoint: 23.0°C (73°F) [RH = 89%]
Pressure (altimeter): 29.99 inches Hg (1015.7 mb)
Winds: from the SSE (150 degrees) at 5 MPH (4 knots; 2.1 m/s)
Visibility: 10 or more miles (16+ km)
Ceiling: at least 12,000 feet AGL
Clouds: scattered clouds at 700 feet AGL
Present Weather: automated observation with no human augmentation;
there may or may not be significant weather present at this time
KCGC 232155Z AUTO 15004KT 10SM SCT007 25/23 A2999 RMK AO2

Conditions at: KCGC observed 23 July 2017  21:35 UTC
Temperature: 25.0°C (77°F)
Dewpoint: 24.0°C (75°F) [RH = 94%]
Pressure (altimeter): 30.00 inches Hg (1016.0 mb)
Winds: calm
Visibility: 10 or more miles (16+ km)
Ceiling: at least 12,000 feet AGL
Clouds: scattered clouds at 900 feet AGL
scattered clouds at 3700 feet AGL
scattered clouds at 5000 feet AGL
Present Weather: automated observation with no human augmentation;
there may or may not be significant weather present at this time
KCGC 232135Z AUTO 00000KT 10SM SCT009 SCT037 SCT050 25/24 A3000 RMK AO2 LTG DSNT S

Conditions at: KCGC observed 23 July 2017  21:15 UTC
Temperature: 26.0°C (79°F)
Dewpoint: 24.0°C (75°F) [RH = 89%]
Pressure (altimeter): 30.01 inches Hg (1016.3 mb)
Winds: calm
Visibility: 10 or more miles (16+ km)
Ceiling: at least 12,000 feet AGL
Clouds: scattered clouds at 5000 feet AGL
scattered clouds at 8000 feet AGL
scattered clouds at 12000 feet AGL
Present Weather: automated observation with no human augmentation;
there may or may not be significant weather present at this time
KCGC 232115Z AUTO 00000KT 10SM SCT050 SCT080 SCT120 26/24 A3001 RMK AO2

Conditions at: KCGC observed 23 July 2017  20:55 UTC
Temperature: 26.0°C (79°F)
Dewpoint: 23.0°C (73°F) [RH = 84%]
Pressure (altimeter): 30.02 inches Hg (1016.7 mb)
Winds: from the S (170 degrees) at 3 MPH (3 knots; 1.6 m/s)
Visibility: 10 or more miles (16+ km)
Ceiling: at least 12,000 feet AGL
Clouds: sky clear below 12,000 feet AGL
Present Weather: -RA  (light rain)
KCGC 232055Z AUTO 17003KT 10SM -RA CLR 26/23 A3002 RMK AO2

Conditions at: KCGC observed 23 July 2017  20:35 UTC
Temperature: 26.0°C (79°F)
Dewpoint: 23.0°C (73°F) [RH = 84%]
Pressure (altimeter): 30.03 inches Hg (1017.0 mb)
Winds: calm
Visibility: 10 or more miles (16+ km)
Ceiling: at least 12,000 feet AGL
Clouds: scattered clouds at 1900 feet AGL
scattered clouds at 3100 feet AGL
scattered clouds at 4400 feet AGL
Present Weather: automated observation with no human augmentation;
there may or may not be significant weather present at this time
KCGC 232035Z AUTO 00000KT 10SM SCT019 SCT031 SCT044 26/23 A3003 RMK AO2

Conditions at: KCGC observed 23 July 2017  20:15 UTC
Temperature: 26.0°C (79°F)
Dewpoint: 23.0°C (73°F) [RH = 84%]
Pressure (altimeter): 30.04 inches Hg (1017.4 mb)
Winds: calm
Visibility: 10 or more miles (16+ km)
Ceiling: at least 12,000 feet AGL
Clouds: scattered clouds at 4400 feet AGL
scattered clouds at 11000 feet AGL
Present Weather: automated observation with no human augmentation;
there may or may not be significant weather present at this time
KCGC 232015Z AUTO 00000KT 10SM SCT044 SCT110 26/23 A3004 RMK AO2

Conditions at: KCGC observed 23 July 2017  19:55 UTC
Temperature: 25.0°C (77°F)
Dewpoint: 23.0°C (73°F) [RH = 89%]
Pressure (altimeter): 30.04 inches Hg (1017.4 mb)
Winds: calm
Visibility: 10 or more miles (16+ km)
Ceiling: at least 12,000 feet AGL
Clouds: sky clear below 12,000 feet AGL
Present Weather: -DZ  (light drizzle)
KCGC 231955Z AUTO 00000KT 10SM -DZ CLR 25/23 A3004 RMK AO2

Conditions at: KCGC observed 23 July 2017  19:35 UTC
Temperature: 25.0°C (77°F)
Dewpoint: 23.0°C (73°F) [RH = 89%]
Pressure (altimeter): 30.04 inches Hg (1017.4 mb)
Winds: calm
Visibility: 10 or more miles (16+ km)
Ceiling: at least 12,000 feet AGL
Clouds: scattered clouds at 12000 feet AGL
Present Weather: automated observation with no human augmentation;
there may or may not be significant weather present at this time
KCGC 231935Z AUTO 00000KT 10SM SCT120 25/23 A3004 RMK AO2

Conditions at: KCGC observed 23 July 2017  19:15 UTC
Temperature: 25.0°C (77°F)
Dewpoint: 23.0°C (73°F) [RH = 89%]
Pressure (altimeter): 30.04 inches Hg (1017.4 mb)
Winds: calm
Visibility: 10 or more miles (16+ km)
Ceiling: at least 12,000 feet AGL
Clouds: sky clear below 12,000 feet AGL
Present Weather: automated observation with no human augmentation;
there may or may not be significant weather present at this time
KCGC 231915Z AUTO 00000KT 10SM CLR 25/23 A3004 RMK AO2 LTG DSNT W

Conditions at: KCGC observed 23 July 2017  18:55 UTC
Temperature: 25.0°C (77°F)
Dewpoint: 23.0°C (73°F) [RH = 89%]
Pressure (altimeter): 30.04 inches Hg (1017.4 mb)
Winds: calm
Visibility: 10 or more miles (16+ km)
Ceiling: at least 12,000 feet AGL
Clouds: scattered clouds at 6500 feet AGL
scattered clouds at 8500 feet AGL
scattered clouds at 12000 feet AGL
Present Weather: -RA  (light rain)
KCGC 231855Z AUTO 00000KT 10SM -RA SCT065 SCT085 SCT120 25/23 A3004 RMK AO2 P0001

Conditions at: KCGC observed 23 July 2017  18:35 UTC
Temperature: 24.0°C (75°F)
Dewpoint: 23.0°C (73°F) [RH = 94%]
Pressure (altimeter): 30.04 inches Hg (1017.4 mb)
Winds: calm
Visibility: 10 or more miles (16+ km)
Ceiling: 10000 feet AGL
Clouds: scattered clouds at 4300 feet AGL
scattered clouds at 7000 feet AGL
overcast cloud deck at 10000 feet AGL
Present Weather: -RA  (light rain)
KCGC 231835Z AUTO 00000KT 10SM -RA SCT043 SCT070 OVC100 24/23 A3004 RMK AO2 LTG DSNT NW P0001

Conditions at: KCGC observed 23 July 2017  18:15 UTC
Temperature: 23.0°C (73°F)
Dewpoint: 23.0°C (73°F) [RH = 100%]
Pressure (altimeter): 30.05 inches Hg (1017.7 mb)
Winds: calm
Visibility: 10 or more miles (16+ km)
Ceiling: 11000 feet AGL
Clouds: scattered clouds at 7000 feet AGL
scattered clouds at 9000 feet AGL
broken clouds at 11000 feet AGL
Present Weather: DZ  (drizzle)
KCGC 231815Z AUTO 00000KT 10SM DZ SCT070 SCT090 BKN110 23/23 A3005 RMK AO2 P0001

Conditions at: KCGC observed 23 July 2017  17:55 UTC
Temperature: 23.0°C (73°F)
Dewpoint: 23.0°C (73°F) [RH = 100%]
Pressure (altimeter): 30.06 inches Hg (1018.0 mb)
Winds: calm
Visibility: 7 miles (11 km)
Ceiling: 11000 feet AGL
Clouds: overcast cloud deck at 11000 feet AGL
Present Weather: -RA  (light rain)
KCGC 231755Z AUTO 00000KT 7SM -RA OVC110 23/23 A3006 RMK AO2 LTG DSNT S AND NW P0012

Conditions at: KCGC observed 23 July 2017  17:35 UTC
Temperature: 23.0°C (73°F)
Dewpoint: 22.0°C (72°F) [RH = 94%]
Pressure (altimeter): 30.07 inches Hg (1018.4 mb)
Winds: calm
Visibility: 5 miles (8 km)
Ceiling: 11000 feet AGL
Clouds: overcast cloud deck at 11000 feet AGL
Present Weather: RA  (rain)
KCGC 231735Z AUTO 00000KT 5SM RA OVC110 23/22 A3007 RMK AO2 LTG DSNT S AND NW P0009

Conditions at: KCGC observed 23 July 2017  17:15 UTC
Temperature: 23.0°C (73°F)
Dewpoint: 22.0°C (72°F) [RH = 94%]
Pressure (altimeter): 30.08 inches Hg (1018.7 mb)
Winds: calm
Visibility: 3 miles (5 km)
Ceiling: 10000 feet AGL
Clouds: scattered clouds at 900 feet AGL
scattered clouds at 4100 feet AGL
overcast cloud deck at 10000 feet AGL
Present Weather: RA  (rain)
KCGC 231715Z AUTO 00000KT 3SM RA SCT009 SCT041 OVC100 23/22 A3008 RMK AO2 LTG DSNT NE AND SW P0005

Conditions at: KCGC observed 23 July 2017  16:55 UTC
Temperature: 23.0°C (73°F)
Dewpoint: 22.0°C (72°F) [RH = 94%]
Pressure (altimeter): 30.09 inches Hg (1019.0 mb)
Winds: calm
Visibility: 1.25 miles (2.01 km)
Ceiling: 7500 feet AGL
Clouds: scattered clouds at 5000 feet AGL
broken clouds at 7500 feet AGL
overcast cloud deck at 9000 feet AGL
Present Weather: +RA  (heavy rain)
KCGC 231655Z AUTO 00000KT 1 1/4SM +RA SCT050 BKN075 OVC090 23/22 A3009 RMK AO2 LTG DSNT S AND NW P0019

Conditions at: KCGC observed 23 July 2017  16:35 UTC
Temperature: 22.0°C (72°F)
Dewpoint: 22.0°C (72°F) [RH = 100%]
Pressure (altimeter): 30.11 inches Hg (1019.7 mb)
Winds: calm
Visibility: 2.50 miles (4.02 km)
Ceiling: 10000 feet AGL
Clouds: overcast cloud deck at 10000 feet AGL
Present Weather: RA  (rain)
KCGC 231635Z AUTO 00000KT 2 1/2SM RA OVC100 22/22 A3011 RMK AO2 LTG DSNT SE S AND NW P0011

Conditions at: KCGC observed 23 July 2017  16:15 UTC
Temperature: 23.0°C (73°F)
Dewpoint: 22.0°C (72°F) [RH = 94%]
Pressure (altimeter): 30.11 inches Hg (1019.7 mb)
Winds: calm
Visibility: 3 miles (5 km)
Ceiling: 10000 feet AGL
Clouds: overcast cloud deck at 10000 feet AGL
Present Weather: +RA  (heavy rain)
KCGC 231615Z AUTO 00000KT 3SM +RA OVC100 23/22 A3011 RMK AO2 LTG DSNT SW AND NW P0005

Conditions at: KCGC observed 23 July 2017  15:55 UTC
Temperature: 23.0°C (73°F)
Dewpoint: 22.0°C (72°F) [RH = 94%]
Pressure (altimeter): 30.11 inches Hg (1019.7 mb)
Winds: calm
Visibility: 5 miles (8 km)
Ceiling: 11000 feet AGL
Clouds: overcast cloud deck at 11000 feet AGL
Present Weather: RA  (rain)
KCGC 231555Z AUTO 00000KT 5SM RA OVC110 23/22 A3011 RMK AO2 LTG DSNT E SW AND NW P0010

Conditions at: KCGC observed 23 July 2017  15:35 UTC
Temperature: 23.0°C (73°F)
Dewpoint: 22.0°C (72°F) [RH = 94%]
Pressure (altimeter): 30.10 inches Hg (1019.4 mb)
Winds: calm
Visibility: 5 miles (8 km)
Ceiling: 11000 feet AGL
Clouds: overcast cloud deck at 11000 feet AGL
Present Weather: RA  (rain)
KCGC 231535Z AUTO 00000KT 5SM RA OVC110 23/22 A3010 RMK AO2 LTG DSNT NE THRU S P0005

Conditions at: KCGC observed 23 July 2017  15:15 UTC
Temperature: 23.0°C (73°F)
Dewpoint: 22.0°C (72°F) [RH = 94%]
Pressure (altimeter): 30.09 inches Hg (1019.0 mb)
Winds: calm
Visibility: 5 miles (8 km)
Ceiling: 11000 feet AGL
Clouds: overcast cloud deck at 11000 feet AGL
Present Weather: TSRA  (rain associated with thunderstorm(s))
KCGC 231515Z AUTO 00000KT 5SM TSRA OVC110 23/22 A3009 RMK AO2 LTG DSNT E THRU W P0002

Conditions at: KCGC observed 23 July 2017  14:55 UTC
Temperature: 23.0°C (73°F)
Dewpoint: 22.0°C (72°F) [RH = 94%]
Pressure (altimeter): 30.08 inches Hg (1018.7 mb)
Winds: calm
Visibility: 5 miles (8 km)
Ceiling: 11000 feet AGL
Clouds: overcast cloud deck at 11000 feet AGL
Present Weather: RA  (rain)
KCGC 231455Z AUTO 00000KT 5SM RA OVC110 23/22 A3008 RMK AO2 LTG DSNT ALQS P0010

Conditions at: KCGC observed 23 July 2017  14:35 UTC
Temperature: 23.0°C (73°F)
Dewpoint: 22.0°C (72°F) [RH = 94%]
Pressure (altimeter): 30.07 inches Hg (1018.4 mb)
Winds: calm
Visibility: 5 miles (8 km)
Ceiling: 12000 feet AGL
Clouds: broken clouds at 12000 feet AGL
Present Weather: RA  (rain)
KCGC 231435Z AUTO 00000KT 5SM RA BKN120 23/22 A3007 RMK AO2 LTG DSNT ALQS P0007

Conditions at: KCGC observed 23 July 2017  14:15 UTC
Temperature: 23.0°C (73°F)
Dewpoint: 22.0°C (72°F) [RH = 94%]
Pressure (altimeter): 30.07 inches Hg (1018.4 mb)
Winds: calm
Visibility: 4 miles (6 km)
Ceiling: 11000 feet AGL
Clouds: broken clouds at 11000 feet AGL
Present Weather: RA  (rain)
KCGC 231415Z AUTO 00000KT 4SM RA BKN110 23/22 A3007 RMK AO2 LTG DSNT ALQS P0003

Conditions at: KCGC observed 23 July 2017  13:55 UTC
Temperature: 23.0°C (73°F)
Dewpoint: 23.0°C (73°F) [RH = 100%]
Pressure (altimeter): 30.07 inches Hg (1018.4 mb)
Winds: calm
Visibility: 3 miles (5 km)
Ceiling: 10000 feet AGL
Clouds: overcast cloud deck at 10000 feet AGL
Present Weather: +RA  (heavy rain)
KCGC 231355Z AUTO 00000KT 3SM +RA OVC100 23/23 A3007 RMK AO2 LTG DSNT ALQS P0025

Conditions at: KCGC observed 23 July 2017  13:35 UTC
Temperature: 23.0°C (73°F)
Dewpoint: 23.0°C (73°F) [RH = 100%]
Pressure (altimeter): 30.07 inches Hg (1018.4 mb)
Winds: calm
Visibility: 2.00 miles (3.22 km)
Ceiling: 9500 feet AGL
Clouds: scattered clouds at 700 feet AGL
scattered clouds at 7000 feet AGL
overcast cloud deck at 9500 feet AGL
Present Weather: RA  (rain)
KCGC 231335Z AUTO 00000KT 2SM RA SCT007 SCT070 OVC095 23/23 A3007 RMK AO2 LTG DSNT ALQS P0018

Conditions at: KCGC observed 23 July 2017  13:15 UTC
Temperature: 23.0°C (73°F)
Dewpoint: 23.0°C (73°F) [RH = 100%]
Pressure (altimeter): 30.06 inches Hg (1018.0 mb)
Winds: calm
Visibility: 2.50 miles (4.02 km)
Ceiling: 3400 feet AGL
Clouds: scattered clouds at 1100 feet AGL
broken clouds at 3400 feet AGL
overcast cloud deck at 8500 feet AGL
Present Weather: VCTS +RA  (thunderstorm in vicinity, heavy rain)
KCGC 231315Z AUTO 00000KT 2 1/2SM +VCTSRA SCT011 BKN034 OVC085 23/23 A3006 RMK AO2 LTG DSNT S THRU NW P0009

Conditions at: KCGC observed 23 July 2017  12:55 UTC
Temperature: 23.0°C (73°F)
Dewpoint: 23.0°C (73°F) [RH = 100%]
Pressure (altimeter): 30.06 inches Hg (1018.0 mb)
Winds: calm
Visibility: 3 miles (5 km)
Ceiling: 1800 feet AGL
Clouds: broken clouds at 1800 feet AGL
broken clouds at 3100 feet AGL
overcast cloud deck at 5500 feet AGL
Present Weather: TSRA  (rain associated with thunderstorm(s))
KCGC 231255Z AUTO 00000KT 3SM TSRA BKN018 BKN031 OVC055 23/23 A3006 RMK AO2 LTG DSNT ALQS P0020

Conditions at: KCGC observed 23 July 2017  12:35 UTC
Temperature: 23.0°C (73°F)
Dewpoint: 23.0°C (73°F) [RH = 100%]
Pressure (altimeter): 30.06 inches Hg (1018.0 mb)
Winds: calm
Visibility: 2.00 miles (3.22 km)
Ceiling: 2100 feet AGL
Clouds: broken clouds at 2100 feet AGL
overcast cloud deck at 3100 feet AGL
Present Weather: VCTS +RA  (thunderstorm in vicinity, heavy rain)
KCGC 231235Z AUTO 00000KT 2SM +VCTSRA BKN021 OVC031 23/23 A3006 RMK AO2 LTG DSNT S THRU NW P0014

Conditions at: KCGC observed 23 July 2017  12:15 UTC
Temperature: 23.0°C (73°F)
Dewpoint: 23.0°C (73°F) [RH = 100%]
Pressure (altimeter): 30.06 inches Hg (1018.0 mb)
Winds: calm
Visibility: 10 or more miles (16+ km)
Ceiling: 1400 feet AGL
Clouds: scattered clouds at 800 feet AGL
broken clouds at 1400 feet AGL
overcast cloud deck at 2600 feet AGL
Present Weather: -TSRA  (light rain associated with thunderstorm(s))
KCGC 231215Z AUTO 00000KT 10SM -TSRA SCT008 BKN014 OVC026 23/23 A3006 RMK AO2 LTG DSNT S THRU NW P0001

Conditions at: KCGC observed 23 July 2017  11:55 UTC
Temperature: 25.0°C (77°F)
Dewpoint: 24.0°C (75°F) [RH = 94%]
Pressure (altimeter): 30.05 inches Hg (1017.7 mb)
Winds: from the WNW (300 degrees) at 3 MPH (3 knots; 1.6 m/s)
Visibility: 7 miles (11 km)
Ceiling: 800 feet AGL
Clouds: broken clouds at 800 feet AGL
overcast cloud deck at 2900 feet AGL
Present Weather: VCTS RA  (thunderstorm in vicinity, rain)
KCGC 231155Z AUTO 30003KT 7SM VCTSRA BKN008 OVC029 25/24 A3005 RMK AO2 LTG DSNT SW AND NW P0001

Conditions at: KCGC observed 23 July 2017  11:35 UTC
Temperature: 25.0°C (77°F)
Dewpoint: 24.0°C (75°F) [RH = 94%]
Pressure (altimeter): 30.04 inches Hg (1017.4 mb)
Winds: calm
Visibility: 10 or more miles (16+ km)
Ceiling: 12000 feet AGL
Clouds: scattered clouds at 2800 feet AGL
scattered clouds at 3200 feet AGL
broken clouds at 12000 feet AGL
Present Weather: -TSRA  (light rain associated with thunderstorm(s))
KCGC 231135Z AUTO 00000KT 10SM -TSRA SCT028 SCT032 BKN120 25/24 A3004 RMK AO2 LTG DSNT ALQS

Conditions at: KCGC observed 23 July 2017  11:15 UTC
Temperature: 25.0°C (77°F)
Dewpoint: 24.0°C (75°F) [RH = 94%]
Pressure (altimeter): 30.02 inches Hg (1016.7 mb)
Winds: calm
Visibility: 7 miles (11 km)
Ceiling: at least 12,000 feet AGL
Clouds: scattered clouds at 12000 feet AGL
Present Weather: -TSDZ  (light thunderstorm, drizzle)
KCGC 231115Z AUTO 00000KT 7SM -TSDZ SCT120 25/24 A3002 RMK AO2 LTG DSNT S THRU NW

Conditions at: KCGC observed 23 July 2017  10:55 UTC
Temperature: 25.0°C (77°F)
Dewpoint: 24.0°C (75°F) [RH = 94%]
Pressure (altimeter): 30.02 inches Hg (1016.7 mb)
Winds: calm
Visibility: 10 or more miles (16+ km)
Ceiling: 12000 feet AGL
Clouds: scattered clouds at 8500 feet AGL
scattered clouds at 10000 feet AGL
broken clouds at 12000 feet AGL
Present Weather: -TSRA  (light rain associated with thunderstorm(s))
KCGC 231055Z AUTO 00000KT 10SM -TSRA SCT085 SCT100 BKN120 25/24 A3002 RMK AO2 LTG DSNT ALQS P0001

Conditions at: KCGC observed 23 July 2017  10:35 UTC
Temperature: 25.0°C (77°F)
Dewpoint: 24.0°C (75°F) [RH = 94%]
Pressure (altimeter): 30.01 inches Hg (1016.3 mb)
Winds: calm
Visibility: 10 or more miles (16+ km)
Ceiling: 10000 feet AGL
Clouds: broken clouds at 10000 feet AGL
overcast cloud deck at 12000 feet AGL
Present Weather: -TSRA  (light rain associated with thunderstorm(s))
KCGC 231035Z AUTO 00000KT 10SM -TSRA BKN100 OVC120 25/24 A3001 RMK AO2 LTG DSNT ALQS

Conditions at: KCGC observed 23 July 2017  10:15 UTC
Temperature: 25.0°C (77°F)
Dewpoint: 24.0°C (75°F) [RH = 94%]
Pressure (altimeter): 30.01 inches Hg (1016.3 mb)
Winds: calm
Visibility: 10 or more miles (16+ km)
Ceiling: 11000 feet AGL
Clouds: scattered clouds at 8500 feet AGL
broken clouds at 11000 feet AGL
Present Weather: -TSRA  (light rain associated with thunderstorm(s))
KCGC 231015Z AUTO 00000KT 10SM -TSRA SCT085 BKN110 25/24 A3001 RMK AO2 LTG DSNT ALQS

Conditions at: KCGC observed 23 July 2017  09:55 UTC
Temperature: 25.0°C (77°F)
Dewpoint: 24.0°C (75°F) [RH = 94%]
Pressure (altimeter): 30.00 inches Hg (1016.0 mb)
Winds: calm
Visibility: 10 or more miles (16+ km)
Ceiling: 11000 feet AGL
Clouds: scattered clouds at 2700 feet AGL
broken clouds at 11000 feet AGL
Present Weather: VCTS -RA  (thunderstorm in vicinity, light rain)
KCGC 230955Z AUTO 00000KT 10SM -VCTSRA SCT027 BKN110 25/24 A3000 RMK AO2 LTG DSNT S THRU NW P0001

Conditions at: KCGC observed 23 July 2017  09:35 UTC
Temperature: 25.0°C (77°F)
Dewpoint: 24.0°C (75°F) [RH = 94%]
Pressure (altimeter): 30.00 inches Hg (1016.0 mb)
Winds: calm
Visibility: 7 miles (11 km)
Ceiling: at least 12,000 feet AGL
Clouds: scattered clouds at 8500 feet AGL
Present Weather: -RA  (light rain)
KCGC 230935Z AUTO 00000KT 7SM -RA SCT085 25/24 A3000 RMK AO2 LTG DSNT S THRU NW

Conditions at: KCGC observed 23 July 2017  09:15 UTC
Temperature: 25.0°C (77°F)
Dewpoint: 24.0°C (75°F) [RH = 94%]
Pressure (altimeter): 30.00 inches Hg (1016.0 mb)
Winds: calm
Visibility: 10 or more miles (16+ km)
Ceiling: at least 12,000 feet AGL
Clouds: scattered clouds at 2600 feet AGL
scattered clouds at 3500 feet AGL
scattered clouds at 7000 feet AGL
Present Weather: VCTS -RA  (thunderstorm in vicinity, light rain)
KCGC 230915Z AUTO 00000KT 10SM -VCTSRA SCT026 SCT035 SCT070 25/24 A3000 RMK AO2 LTG DSNT S AND NW

Conditions at: KCGC observed 23 July 2017  08:55 UTC
Temperature: 25.0°C (77°F)
Dewpoint: 24.0°C (75°F) [RH = 94%]
Pressure (altimeter): 30.01 inches Hg (1016.3 mb)
Winds: calm
Visibility: 10 or more miles (16+ km)
Ceiling: 11000 feet AGL
Clouds: scattered clouds at 2600 feet AGL
scattered clouds at 7000 feet AGL
broken clouds at 11000 feet AGL
Present Weather: -RA  (light rain)
KCGC 230855Z AUTO 00000KT 10SM -RA SCT026 SCT070 BKN110 25/24 A3001 RMK AO2 LTG DSNT S AND NW P0001

Conditions at: KCGC observed 23 July 2017  08:35 UTC
Temperature: 25.0°C (77°F)
Dewpoint: 24.0°C (75°F) [RH = 94%]
Pressure (altimeter): 30.00 inches Hg (1016.0 mb)
Winds: calm
Visibility: 10 or more miles (16+ km)
Ceiling: at least 12,000 feet AGL
Clouds: scattered clouds at 11000 feet AGL
Present Weather: VCTS -RA  (thunderstorm in vicinity, light rain)
KCGC 230835Z AUTO 00000KT 10SM -VCTSRA SCT110 25/24 A3000 RMK AO2 LTG DSNT N S AND SW

Conditions at: KCGC observed 23 July 2017  08:15 UTC
Temperature: 25.0°C (77°F)
Dewpoint: 24.0°C (75°F) [RH = 94%]
Pressure (altimeter): 30.00 inches Hg (1016.0 mb)
Winds: calm
Visibility: 10 or more miles (16+ km)
Ceiling: 11000 feet AGL
Clouds: broken clouds at 11000 feet AGL
Present Weather: VCTS -RA  (thunderstorm in vicinity, light rain)
KCGC 230815Z AUTO 00000KT 10SM -VCTSRA BKN110 25/24 A3000 RMK AO2 LTG DSNT S THRU NW

Conditions at: KCGC observed 23 July 2017  07:55 UTC
Temperature: 25.0°C (77°F)
Dewpoint: 24.0°C (75°F) [RH = 94%]
Pressure (altimeter): 30.00 inches Hg (1016.0 mb)
Winds: calm
Visibility: 10 or more miles (16+ km)
Ceiling: at least 12,000 feet AGL
Clouds: sky clear below 12,000 feet AGL
Present Weather: VCTS  (thunderstorm in vicinity)
KCGC 230755Z AUTO 00000KT 10SM VCTS CLR 25/24 A3000 RMK AO2 LTG DSNT N S AND NW

Conditions at: KCGC observed 23 July 2017  07:35 UTC
Temperature: 25.0°C (77°F)
Dewpoint: 24.0°C (75°F) [RH = 94%]
Pressure (altimeter): 30.01 inches Hg (1016.3 mb)
Winds: calm
Visibility: 10 or more miles (16+ km)
Ceiling: at least 12,000 feet AGL
Clouds: sky clear below 12,000 feet AGL
Present Weather: VCTS  (thunderstorm in vicinity)
KCGC 230735Z AUTO 00000KT 10SM VCTS CLR 25/24 A3001 RMK AO2 LTG DSNT N AND NW

Conditions at: KCGC observed 23 July 2017  07:15 UTC
Temperature: 25.0°C (77°F)
Dewpoint: 24.0°C (75°F) [RH = 94%]
Pressure (altimeter): 30.01 inches Hg (1016.3 mb)
Winds: calm
Visibility: 10 or more miles (16+ km)
Ceiling: at least 12,000 feet AGL
Clouds: sky clear below 12,000 feet AGL
Present Weather: VCTS  (thunderstorm in vicinity)
KCGC 230715Z AUTO 00000KT 10SM VCTS CLR 25/24 A3001 RMK AO2 LTG DSNT N AND NW

Conditions at: KCGC observed 23 July 2017  06:55 UTC
Temperature: 25.0°C (77°F)
Dewpoint: 24.0°C (75°F) [RH = 94%]
Pressure (altimeter): 30.02 inches Hg (1016.7 mb)
Winds: calm
Visibility: 10 or more miles (16+ km)
Ceiling: at least 12,000 feet AGL
Clouds: sky clear below 12,000 feet AGL
Present Weather: VCTS  (thunderstorm in vicinity)
KCGC 230655Z AUTO 00000KT 10SM VCTS CLR 25/24 A3002 RMK AO2 LTG DSNT N AND NW

Conditions at: KCGC observed 23 July 2017  06:35 UTC
Temperature: 25.0°C (77°F)
Dewpoint: 24.0°C (75°F) [RH = 94%]
Pressure (altimeter): 30.02 inches Hg (1016.7 mb)
Winds: calm
Visibility: 10 or more miles (16+ km)
Ceiling: at least 12,000 feet AGL
Clouds: sky clear below 12,000 feet AGL
Present Weather: TS  (thunderstorm)
KCGC 230635Z AUTO 00000KT 10SM TS CLR 25/24 A3002 RMK AO2 LTG DSNT W THRU N

Conditions at: KCGC observed 23 July 2017  06:15 UTC
Temperature: 25.0°C (77°F)
Dewpoint: 24.0°C (75°F) [RH = 94%]
Pressure (altimeter): 30.03 inches Hg (1017.0 mb)
Winds: calm
Visibility: 10 or more miles (16+ km)
Ceiling: at least 12,000 feet AGL
Clouds: scattered clouds at 2200 feet AGL
scattered clouds at 2700 feet AGL
scattered clouds at 3800 feet AGL
Present Weather: automated observation with no human augmentation;
there may or may not be significant weather present at this time
KCGC 230615Z AUTO 00000KT 10SM SCT022 SCT027 SCT038 25/24 A3003 RMK AO2 LTG DSNT N AND NW

Conditions at: KCGC observed 23 July 2017  05:55 UTC
Temperature: 25.0°C (77°F)
Dewpoint: 24.0°C (75°F) [RH = 94%]
Pressure (altimeter): 30.04 inches Hg (1017.4 mb)
Winds: calm
Visibility: 10 or more miles (16+ km)
Ceiling: 2800 feet AGL
Clouds: scattered clouds at 2100 feet AGL
broken clouds at 2800 feet AGL
broken clouds at 3200 feet AGL
Present Weather: automated observation with no human augmentation;
there may or may not be significant weather present at this time
KCGC 230555Z AUTO 00000KT 10SM SCT021 BKN028 BKN032 25/24 A3004 RMK AO2

Conditions at: KCGC observed 23 July 2017  05:35 UTC
Temperature: 25.0°C (77°F)
Dewpoint: 23.0°C (73°F) [RH = 89%]
Pressure (altimeter): 30.04 inches Hg (1017.4 mb)
Winds: calm
Visibility: 10 or more miles (16+ km)
Ceiling: at least 12,000 feet AGL
Clouds: scattered clouds at 2600 feet AGL
scattered clouds at 3200 feet AGL
Present Weather: automated observation with no human augmentation;
there may or may not be significant weather present at this time
KCGC 230535Z AUTO 00000KT 10SM SCT026 SCT032 25/23 A3004 RMK AO2

Conditions at: KCGC observed 23 July 2017  05:15 UTC
Temperature: 25.0°C (77°F)
Dewpoint: 23.0°C (73°F) [RH = 89%]
Pressure (altimeter): 30.05 inches Hg (1017.7 mb)
Winds: calm
Visibility: 10 or more miles (16+ km)
Ceiling: at least 12,000 feet AGL
Clouds: sky clear below 12,000 feet AGL
Present Weather: automated observation with no human augmentation;
there may or may not be significant weather present at this time
KCGC 230515Z AUTO 00000KT 10SM CLR 25/23 A3005 RMK AO2

Conditions at: KCGC observed 23 July 2017  04:55 UTC
Temperature: 25.0°C (77°F)
Dewpoint: 23.0°C (73°F) [RH = 89%]
Pressure (altimeter): 30.05 inches Hg (1017.7 mb)
Winds: calm
Visibility: 10 or more miles (16+ km)
Ceiling: at least 12,000 feet AGL
Clouds: sky clear below 12,000 feet AGL
Present Weather: automated observation with no human augmentation;
there may or may not be significant weather present at this time
KCGC 230455Z AUTO 00000KT 10SM CLR 25/23 A3005 RMK AO2

Conditions at: KCGC observed 23 July 2017  04:35 UTC
Temperature: 25.0°C (77°F)
Dewpoint: 23.0°C (73°F) [RH = 89%]
Pressure (altimeter): 30.04 inches Hg (1017.4 mb)
Winds: calm
Visibility: 10 or more miles (16+ km)
Ceiling: at least 12,000 feet AGL
Clouds: sky clear below 12,000 feet AGL
Present Weather: automated observation with no human augmentation;
there may or may not be significant weather present at this time
KCGC 230435Z AUTO 00000KT 10SM CLR 25/23 A3004 RMK AO2

Conditions at: KCGC observed 23 July 2017  04:15 UTC
Temperature: 25.0°C (77°F)
Dewpoint: 24.0°C (75°F) [RH = 94%]
Pressure (altimeter): 30.05 inches Hg (1017.7 mb)
Winds: calm
Visibility: 10 or more miles (16+ km)
Ceiling: at least 12,000 feet AGL
Clouds: sky clear below 12,000 feet AGL
Present Weather: automated observation with no human augmentation;
there may or may not be significant weather present at this time
KCGC 230415Z AUTO 00000KT 10SM CLR 25/24 A3005 RMK AO2

Conditions at: KCGC observed 23 July 2017  03:55 UTC
Temperature: 25.0°C (77°F)
Dewpoint: 23.0°C (73°F) [RH = 89%]
Pressure (altimeter): 30.04 inches Hg (1017.4 mb)
Winds: calm
Visibility: 10 or more miles (16+ km)
Ceiling: at least 12,000 feet AGL
Clouds: scattered clouds at 12000 feet AGL
Present Weather: automated observation with no human augmentation;
there may or may not be significant weather present at this time
KCGC 230355Z AUTO 00000KT 10SM SCT120 25/23 A3004 RMK AO2

Conditions at: KCGC observed 23 July 2017  03:35 UTC
Temperature: 25.0°C (77°F)
Dewpoint: 23.0°C (73°F) [RH = 89%]
Pressure (altimeter): 30.04 inches Hg (1017.4 mb)
Winds: calm
Visibility: 10 or more miles (16+ km)
Ceiling: at least 12,000 feet AGL
Clouds: scattered clouds at 12000 feet AGL
Present Weather: -RA  (light rain)
KCGC 230335Z AUTO 00000KT 10SM -RA SCT120 25/23 A3004 RMK AO2

Conditions at: KCGC observed 23 July 2017  03:15 UTC
Temperature: 26.0°C (79°F)
Dewpoint: 23.0°C (73°F) [RH = 84%]
Pressure (altimeter): 30.04 inches Hg (1017.4 mb)
Winds: calm
Visibility: 10 or more miles (16+ km)
Ceiling: at least 12,000 feet AGL
Clouds: sky clear below 12,000 feet AGL
Present Weather: -RA  (light rain)
KCGC 230315Z AUTO 00000KT 10SM -RA CLR 26/23 A3004 RMK AO2

Conditions at: KCGC observed 23 July 2017  02:55 UTC
Temperature: 26.0°C (79°F)
Dewpoint: 24.0°C (75°F) [RH = 89%]
Pressure (altimeter): 30.04 inches Hg (1017.4 mb)
Winds: calm
Visibility: 10 or more miles (16+ km)
Ceiling: at least 12,000 feet AGL
Clouds: scattered clouds at 12000 feet AGL
Present Weather: -RA  (light rain)
KCGC 230255Z AUTO 00000KT 10SM -RA SCT120 26/24 A3004 RMK AO2

Conditions at: KCGC observed 23 July 2017  02:35 UTC
Temperature: 26.0°C (79°F)
Dewpoint: 24.0°C (75°F) [RH = 89%]
Pressure (altimeter): 30.04 inches Hg (1017.4 mb)
Winds: from the S (190 degrees) at 3 MPH (3 knots; 1.6 m/s)
Visibility: 10 or more miles (16+ km)
Ceiling: at least 12,000 feet AGL
Clouds: scattered clouds at 12000 feet AGL
Present Weather: -DZ  (light drizzle)
KCGC 230235Z AUTO 19003KT 10SM -DZ SCT120 26/24 A3004 RMK AO2

Conditions at: KCGC observed 23 July 2017  02:15 UTC
Temperature: 26.0°C (79°F)
Dewpoint: 23.0°C (73°F) [RH = 84%]
Pressure (altimeter): 30.04 inches Hg (1017.4 mb)
Winds: calm
Visibility: 10 or more miles (16+ km)
Ceiling: at least 12,000 feet AGL
Clouds: scattered clouds at 12000 feet AGL
Present Weather: automated observation with no human augmentation;
there may or may not be significant weather present at this time
KCGC 230215Z AUTO 00000KT 10SM SCT120 26/23 A3004 RMK AO2

Conditions at: KCGC observed 23 July 2017  01:55 UTC
Temperature: 26.0°C (79°F)
Dewpoint: 23.0°C (73°F) [RH = 84%]
Pressure (altimeter): 30.03 inches Hg (1017.0 mb)
Winds: calm
Visibility: 10 or more miles (16+ km)
Ceiling: at least 12,000 feet AGL
Clouds: sky clear below 12,000 feet AGL
Present Weather: automated observation with no human augmentation;
there may or may not be significant weather present at this time
KCGC 230155Z AUTO 00000KT 10SM CLR 26/23 A3003 RMK AO2

Conditions at: KCGC observed 23 July 2017  01:35 UTC
Temperature: 26.0°C (79°F)
Dewpoint: 23.0°C (73°F) [RH = 84%]
Pressure (altimeter): 30.02 inches Hg (1016.7 mb)
Winds: calm
Visibility: 10 or more miles (16+ km)
Ceiling: at least 12,000 feet AGL
Clouds: sky clear below 12,000 feet AGL
Present Weather: automated observation with no human augmentation;
there may or may not be significant weather present at this time
KCGC 230135Z AUTO 00000KT 10SM CLR 26/23 A3002 RMK AO2 LTG DSNT S

Conditions at: KCGC observed 23 July 2017  01:15 UTC
Temperature: 26.0°C (79°F)
Dewpoint: 23.0°C (73°F) [RH = 84%]
Pressure (altimeter): 30.03 inches Hg (1017.0 mb)
Winds: calm
Visibility: 10 or more miles (16+ km)
Ceiling: at least 12,000 feet AGL
Clouds: sky clear below 12,000 feet AGL
Present Weather: automated observation with no human augmentation;
there may or may not be significant weather present at this time
KCGC 230115Z AUTO 00000KT 10SM CLR 26/23 A3003 RMK AO2

Conditions at: KCGC observed 23 July 2017  00:55 UTC
Temperature: 26.0°C (79°F)
Dewpoint: 23.0°C (73°F) [RH = 84%]
Pressure (altimeter): 30.03 inches Hg (1017.0 mb)
Winds: from the S (180 degrees) at 3 MPH (3 knots; 1.6 m/s)
Visibility: 10 or more miles (16+ km)
Ceiling: at least 12,000 feet AGL
Clouds: sky clear below 12,000 feet AGL
Present Weather: automated observation with no human augmentation;
there may or may not be significant weather present at this time
KCGC 230055Z AUTO 18003KT 10SM CLR 26/23 A3003 RMK AO2

Conditions at: KCGC observed 23 July 2017  00:35 UTC
Temperature: 27.0°C (81°F)
Dewpoint: 24.0°C (75°F) [RH = 84%]
Pressure (altimeter): 30.03 inches Hg (1017.0 mb)
Winds: calm
Visibility: 10 or more miles (16+ km)
Ceiling: at least 12,000 feet AGL
Clouds: sky clear below 12,000 feet AGL
Present Weather: automated observation with no human augmentation;
there may or may not be significant weather present at this time
KCGC 230035Z AUTO 00000KT 10SM CLR 27/24 A3003 RMK AO2

Conditions at: KCGC observed 23 July 2017  00:15 UTC
Temperature: 27.0°C (81°F)
Dewpoint: 24.0°C (75°F) [RH = 84%]
Pressure (altimeter): 30.04 inches Hg (1017.4 mb)
Winds: calm
Visibility: 10 or more miles (16+ km)
Ceiling: at least 12,000 feet AGL
Clouds: sky clear below 12,000 feet AGL
Present Weather: automated observation with no human augmentation;
there may or may not be significant weather present at this time
KCGC 230015Z AUTO 00000KT 10SM CLR 27/24 A3004 RMK AO2 LTG DSNT W

Conditions at: KCGC observed 22 July 2017  23:55 UTC
Temperature: 27.0°C (81°F)
Dewpoint: 24.0°C (75°F) [RH = 84%]
Pressure (altimeter): 30.04 inches Hg (1017.4 mb)
Winds: calm
Visibility: 10 or more miles (16+ km)
Ceiling: at least 12,000 feet AGL
Clouds: sky clear below 12,000 feet AGL
Present Weather: VCTS  (thunderstorm in vicinity)
KCGC 222355Z AUTO 00000KT 10SM VCTS CLR 27/24 A3004 RMK AO2 LTG DSNT W AND NW

Conditions at: KCGC observed 22 July 2017  23:35 UTC
Temperature: 27.0°C (81°F)
Dewpoint: 24.0°C (75°F) [RH = 84%]
Pressure (altimeter): 30.04 inches Hg (1017.4 mb)
Winds: calm
Visibility: 10 or more miles (16+ km)
Ceiling: at least 12,000 feet AGL
Clouds: sky clear below 12,000 feet AGL
Present Weather: VCTS  (thunderstorm in vicinity)
KCGC 222335Z AUTO 00000KT 10SM VCTS CLR 27/24 A3004 RMK AO2 LTG DSNT W AND NW

Conditions at: KCGC observed 22 July 2017  23:15 UTC
Temperature: 27.0°C (81°F)
Dewpoint: 24.0°C (75°F) [RH = 84%]
Pressure (altimeter): 30.04 inches Hg (1017.4 mb)
Winds: calm
Visibility: 10 or more miles (16+ km)
Ceiling: at least 12,000 feet AGL
Clouds: sky clear below 12,000 feet AGL
Present Weather: automated observation with no human augmentation;
there may or may not be significant weather present at this time
KCGC 222315Z AUTO 00000KT 10SM CLR 27/24 A3004 RMK AO2 LTG DSNT S AND W

Conditions at: KCGC observed 22 July 2017  22:55 UTC
Temperature: 27.0°C (81°F)
Dewpoint: 24.0°C (75°F) [RH = 84%]
Pressure (altimeter): 30.04 inches Hg (1017.4 mb)
Winds: calm
Visibility: 10 or more miles (16+ km)
Ceiling: at least 12,000 feet AGL
Clouds: sky clear below 12,000 feet AGL
Present Weather: automated observation with no human augmentation;
there may or may not be significant weather present at this time
KCGC 222255Z AUTO 00000KT 10SM CLR 27/24 A3004 RMK AO2 LTG DSNT S THRU NW

Conditions at: KCGC observed 22 July 2017  22:35 UTC
Temperature: 27.0°C (81°F)
Dewpoint: 24.0°C (75°F) [RH = 84%]
Pressure (altimeter): 30.05 inches Hg (1017.7 mb)
Winds: calm
Visibility: 10 or more miles (16+ km)
Ceiling: at least 12,000 feet AGL
Clouds: sky clear below 12,000 feet AGL
Present Weather: automated observation with no human augmentation;
there may or may not be significant weather present at this time
KCGC 222235Z AUTO 00000KT 10SM CLR 27/24 A3005 RMK AO2 LTG DSNT S

Conditions at: KCGC observed 22 July 2017  22:15 UTC
Temperature: 28.0°C (82°F)
Dewpoint: 23.0°C (73°F) [RH = 74%]
Pressure (altimeter): 30.05 inches Hg (1017.7 mb)
Winds: calm
Visibility: 10 or more miles (16+ km)
Ceiling: at least 12,000 feet AGL
Clouds: sky clear below 12,000 feet AGL
Present Weather: automated observation with no human augmentation;
there may or may not be significant weather present at this time
KCGC 222215Z AUTO 00000KT 10SM CLR 28/23 A3005 RMK AO2

Conditions at: KCGC observed 22 July 2017  21:55 UTC
Temperature: 28.0°C (82°F)
Dewpoint: 23.0°C (73°F) [RH = 74%]
Pressure (altimeter): 30.04 inches Hg (1017.4 mb)
Winds: calm
Visibility: 10 or more miles (16+ km)
Ceiling: at least 12,000 feet AGL
Clouds: sky clear below 12,000 feet AGL
Present Weather: automated observation with no human augmentation;
there may or may not be significant weather present at this time
KCGC 222155Z AUTO 00000KT 10SM CLR 28/23 A3004 RMK AO2

Conditions at: KCGC observed 22 July 2017  21:35 UTC
Temperature: 28.0°C (82°F)
Dewpoint: 23.0°C (73°F) [RH = 74%]
Pressure (altimeter): 30.04 inches Hg (1017.4 mb)
Winds: calm
Visibility: 10 or more miles (16+ km)
Ceiling: at least 12,000 feet AGL
Clouds: sky clear below 12,000 feet AGL
Present Weather: automated observation with no human augmentation;
there may or may not be significant weather present at this time
KCGC 222135Z AUTO 00000KT 10SM CLR 28/23 A3004 RMK AO2

Conditions at: KCGC observed 22 July 2017  21:15 UTC
Temperature: 28.0°C (82°F)
Dewpoint: 23.0°C (73°F) [RH = 74%]
Pressure (altimeter): 30.04 inches Hg (1017.4 mb)
Winds: calm
Visibility: 10 or more miles (16+ km)
Ceiling: at least 12,000 feet AGL
Clouds: sky clear below 12,000 feet AGL
Present Weather: automated observation with no human augmentation;
there may or may not be significant weather present at this time
KCGC 222115Z AUTO 00000KT 10SM CLR 28/23 A3004 RMK AO2

Conditions at: KCGC observed 22 July 2017  20:55 UTC
Temperature: 28.0°C (82°F)
Dewpoint: 23.0°C (73°F) [RH = 74%]
Pressure (altimeter): 30.04 inches Hg (1017.4 mb)
Winds: calm
Visibility: 10 or more miles (16+ km)
Ceiling: at least 12,000 feet AGL
Clouds: sky clear below 12,000 feet AGL
Present Weather: automated observation with no human augmentation;
there may or may not be significant weather present at this time
KCGC 222055Z AUTO 00000KT 10SM CLR 28/23 A3004 RMK AO2 LTG DSNT NE AND S

Conditions at: KCGC observed 22 July 2017  20:35 UTC
Temperature: 28.0°C (82°F)
Dewpoint: 22.0°C (72°F) [RH = 70%]
Pressure (altimeter): 30.04 inches Hg (1017.4 mb)
Winds: from the WSW (240 degrees) at 3 MPH (3 knots; 1.6 m/s)
Visibility: 10 or more miles (16+ km)
Ceiling: at least 12,000 feet AGL
Clouds: sky clear below 12,000 feet AGL
Present Weather: automated observation with no human augmentation;
there may or may not be significant weather present at this time
KCGC 222035Z AUTO 24003KT 10SM CLR 28/22 A3004 RMK AO2 LTG DSNT S

Conditions at: KCGC observed 22 July 2017  20:15 UTC
Temperature: 28.0°C (82°F)
Dewpoint: 22.0°C (72°F) [RH = 70%]
Pressure (altimeter): 30.05 inches Hg (1017.7 mb)
Winds: from the WSW (250 degrees) at 5 MPH (4 knots; 2.1 m/s)
Visibility: 10 or more miles (16+ km)
Ceiling: at least 12,000 feet AGL
Clouds: sky clear below 12,000 feet AGL
Present Weather: automated observation with no human augmentation;
there may or may not be significant weather present at this time
KCGC 222015Z AUTO 25004KT 10SM CLR 28/22 A3005 RMK AO2 LTG DSNT S

Conditions at: KCGC observed 22 July 2017  19:55 UTC
Temperature: 29.0°C (84°F)
Dewpoint: 23.0°C (73°F) [RH = 70%]
Pressure (altimeter): 30.05 inches Hg (1017.7 mb)
Winds: from the W (260 degrees) at 6 MPH (5 knots; 2.6 m/s)
Visibility: 10 or more miles (16+ km)
Ceiling: at least 12,000 feet AGL
Clouds: sky clear below 12,000 feet AGL
Present Weather: automated observation with no human augmentation;
there may or may not be significant weather present at this time
KCGC 221955Z AUTO 26005KT 10SM CLR 29/23 A3005 RMK AO2

Conditions at: KCGC observed 22 July 2017  19:35 UTC
Temperature: 28.0°C (82°F)
Dewpoint: 23.0°C (73°F) [RH = 74%]
Pressure (altimeter): 30.06 inches Hg (1018.0 mb)
Winds: from the WSW (240 degrees) at 5 MPH (4 knots; 2.1 m/s)
Visibility: 10 or more miles (16+ km)
Ceiling: at least 12,000 feet AGL
Clouds: scattered clouds at 2300 feet AGL
Present Weather: automated observation with no human augmentation;
there may or may not be significant weather present at this time
KCGC 221935Z AUTO 24004KT 10SM SCT023 28/23 A3006 RMK AO2 LTG DSNT NE AND S

Conditions at: KCGC observed 22 July 2017  19:15 UTC
Temperature: 29.0°C (84°F)
Dewpoint: 23.0°C (73°F) [RH = 70%]
Pressure (altimeter): 30.07 inches Hg (1018.4 mb)
Winds: from the WSW (250 degrees) at 6 MPH (5 knots; 2.6 m/s)
Visibility: 10 or more miles (16+ km)
Ceiling: at least 12,000 feet AGL
Clouds: sky clear below 12,000 feet AGL
Present Weather: automated observation with no human augmentation;
there may or may not be significant weather present at this time
KCGC 221915Z AUTO 25005KT 10SM CLR 29/23 A3007 RMK AO2 LTG DSNT N S AND NW

Conditions at: KCGC observed 22 July 2017  18:55 UTC
Temperature: 29.0°C (84°F)
Dewpoint: 23.0°C (73°F) [RH = 70%]
Pressure (altimeter): 30.07 inches Hg (1018.4 mb)
Winds: from the W (270 degrees) at 5 MPH (4 knots; 2.1 m/s)
Visibility: 10 or more miles (16+ km)
Ceiling: at least 12,000 feet AGL
Clouds: sky clear below 12,000 feet AGL
Present Weather: automated observation with no human augmentation;
there may or may not be significant weather present at this time
KCGC 221855Z AUTO 27004KT 10SM CLR 29/23 A3007 RMK AO2 LTG DSNT N AND S

Conditions at: KCGC observed 22 July 2017  18:35 UTC
Temperature: 27.0°C (81°F)
Dewpoint: 24.0°C (75°F) [RH = 84%]
Pressure (altimeter): 30.08 inches Hg (1018.7 mb)
Winds: calm
Visibility: 10 or more miles (16+ km)
Ceiling: at least 12,000 feet AGL
Clouds: sky clear below 12,000 feet AGL
Present Weather: automated observation with no human augmentation;
there may or may not be significant weather present at this time
KCGC 221835Z AUTO 00000KT 10SM CLR 27/24 A3008 RMK AO2 LTG DSNT N NE AND S

Conditions at: KCGC observed 22 July 2017  18:15 UTC
Temperature: 26.0°C (79°F)
Dewpoint: 24.0°C (75°F) [RH = 89%]
Pressure (altimeter): 30.07 inches Hg (1018.4 mb)
Winds: calm
Visibility: 10 or more miles (16+ km)
Ceiling: at least 12,000 feet AGL
Clouds: scattered clouds at 4000 feet AGL
scattered clouds at 5000 feet AGL
scattered clouds at 6500 feet AGL
Present Weather: VCTS -RA  (thunderstorm in vicinity, light rain)
KCGC 221815Z AUTO 00000KT 10SM -VCTSRA SCT040 SCT050 SCT065 26/24 A3007 RMK AO2 LTG DSNT N THRU S

Conditions at: KCGC observed 22 July 2017  17:55 UTC
Temperature: 26.0°C (79°F)
Dewpoint: 24.0°C (75°F) [RH = 89%]
Pressure (altimeter): 30.08 inches Hg (1018.7 mb)
Winds: calm
Visibility: 7 miles (11 km)
Ceiling: 4900 feet AGL
Clouds: scattered clouds at 3500 feet AGL
broken clouds at 4900 feet AGL
overcast cloud deck at 11000 feet AGL
Present Weather: -RA  (light rain)
KCGC 221755Z AUTO 00000KT 7SM -RA SCT035 BKN049 OVC110 26/24 A3008 RMK AO2 LTG DSNT N THRU S

Conditions at: KCGC observed 22 July 2017  17:35 UTC
Temperature: 25.0°C (77°F)
Dewpoint: 23.0°C (73°F) [RH = 89%]
Pressure (altimeter): 30.07 inches Hg (1018.4 mb)
Winds: calm
Visibility: 10 or more miles (16+ km)
Ceiling: 10000 feet AGL
Clouds: scattered clouds at 3500 feet AGL
overcast cloud deck at 10000 feet AGL
Present Weather: -RA  (light rain)
KCGC 221735Z AUTO 00000KT 10SM -RA SCT035 OVC100 25/23 A3007 RMK AO2 LTG DSNT ALQS

Conditions at: KCGC observed 22 July 2017  17:15 UTC
Temperature: 25.0°C (77°F)
Dewpoint: 23.0°C (73°F) [RH = 89%]
Pressure (altimeter): 30.09 inches Hg (1019.0 mb)
Winds: from the W (270 degrees) at 5 MPH (4 knots; 2.1 m/s)
Visibility: 10 or more miles (16+ km)
Ceiling: 10000 feet AGL
Clouds: scattered clouds at 1000 feet AGL
scattered clouds at 4700 feet AGL
overcast cloud deck at 10000 feet AGL
Present Weather: -DZ  (light drizzle)
KCGC 221715Z AUTO 27004KT 10SM -DZ SCT010 SCT047 OVC100 25/23 A3009 RMK AO2 LTG DSNT ALQS

Conditions at: KCGC observed 22 July 2017  16:55 UTC
Temperature: 25.0°C (77°F)
Dewpoint: 23.0°C (73°F) [RH = 89%]
Pressure (altimeter): 30.11 inches Hg (1019.7 mb)
Winds: from the W (260 degrees) at 7 MPH (6 knots; 3.1 m/s)
Visibility: 5 miles (8 km)
Ceiling: 5000 feet AGL
Clouds: scattered clouds at 3100 feet AGL
broken clouds at 5000 feet AGL
overcast cloud deck at 10000 feet AGL
Present Weather: VCTS RA  (thunderstorm in vicinity, rain)
KCGC 221655Z AUTO 26006KT 5SM VCTSRA SCT031 BKN050 OVC100 25/23 A3011 RMK AO2 LTG DSNT ALQS P0009

Conditions at: KCGC observed 22 July 2017  16:35 UTC
Temperature: 25.0°C (77°F)
Dewpoint: 23.0°C (73°F) [RH = 89%]
Pressure (altimeter): 30.12 inches Hg (1020.1 mb)
Winds: from the WSW (250 degrees) at 12 MPH (10 knots; 5.2 m/s)
Visibility: 5 miles (8 km)
Ceiling: 4700 feet AGL
Clouds: scattered clouds at 2000 feet AGL
broken clouds at 4700 feet AGL
overcast cloud deck at 8000 feet AGL
Present Weather: VCTS RA  (thunderstorm in vicinity, rain)
KCGC 221635Z AUTO 25010KT 5SM VCTSRA SCT020 BKN047 OVC080 25/23 A3012 RMK AO2 LTG DSNT ALQS P0003

Conditions at: KCGC observed 22 July 2017  16:15 UTC
Temperature: 30.0°C (86°F)
Dewpoint: 23.0°C (73°F) [RH = 66%]
Pressure (altimeter): 30.10 inches Hg (1019.4 mb)
Winds: from the SW (230 degrees) at 8 MPH (7 knots; 3.6 m/s)
Visibility: 10 or more miles (16+ km)
Ceiling: 7000 feet AGL
Clouds: scattered clouds at 2500 feet AGL
scattered clouds at 3800 feet AGL
broken clouds at 7000 feet AGL
Present Weather: TS  (thunderstorm)
KCGC 221615Z AUTO 23007KT 160V260 10SM TS SCT025 SCT038 BKN070 30/23 A3010 RMK AO2 LTG DSNT ALQS

Conditions at: KCGC observed 22 July 2017  15:55 UTC
Temperature: 30.0°C (86°F)
Dewpoint: 23.0°C (73°F) [RH = 66%]
Pressure (altimeter): 30.09 inches Hg (1019.0 mb)
Winds: from the S (190 degrees) at 6 MPH (5 knots; 2.6 m/s)
Visibility: 10 or more miles (16+ km)
Ceiling: 2800 feet AGL
Clouds: broken clouds at 2800 feet AGL
broken clouds at 5500 feet AGL
overcast cloud deck at 7000 feet AGL
Present Weather: VCTS  (thunderstorm in vicinity)
KCGC 221555Z AUTO 19005KT 10SM VCTS BKN028 BKN055 OVC070 30/23 A3009 RMK AO2 LTG DSNT ALQS

Conditions at: KCGC observed 22 July 2017  15:35 UTC
Temperature: 31.0°C (88°F)
Dewpoint: 23.0°C (73°F) [RH = 63%]
Pressure (altimeter): 30.09 inches Hg (1019.0 mb)
Winds: from the SW (230 degrees) at 6 MPH (5 knots; 2.6 m/s)
Visibility: 10 or more miles (16+ km)
Ceiling: 3000 feet AGL
Clouds: broken clouds at 3000 feet AGL
broken clouds at 3600 feet AGL
Present Weather: VCTS  (thunderstorm in vicinity)
KCGC 221535Z AUTO 23005KT 10SM VCTS BKN030 BKN036 31/23 A3009 RMK AO2 LTG DSNT S THRU NW

Conditions at: KCGC observed 22 July 2017  15:15 UTC
Temperature: 30.0°C (86°F)
Dewpoint: 23.0°C (73°F) [RH = 66%]
Pressure (altimeter): 30.09 inches Hg (1019.0 mb)
Winds: from the SSW (200 degrees) at 5 MPH (4 knots; 2.1 m/s)
Visibility: 10 or more miles (16+ km)
Ceiling: at least 12,000 feet AGL
Clouds: scattered clouds at 2800 feet AGL
scattered clouds at 3500 feet AGL
scattered clouds at 4100 feet AGL
Present Weather: VCTS  (thunderstorm in vicinity)
KCGC 221515Z AUTO 20004KT 10SM VCTS SCT028 SCT035 SCT041 30/23 A3009 RMK AO2 LTG DSNT S THRU NW

Conditions at: KCGC observed 22 July 2017  14:55 UTC
Temperature: 29.0°C (84°F)
Dewpoint: 23.0°C (73°F) [RH = 70%]
Pressure (altimeter): 30.09 inches Hg (1019.0 mb)
Winds: from the W (270 degrees) at 6 MPH (5 knots; 2.6 m/s)
Visibility: 10 or more miles (16+ km)
Ceiling: 2400 feet AGL
Clouds: broken clouds at 2400 feet AGL
broken clouds at 3200 feet AGL
broken clouds at 4300 feet AGL
Present Weather: VCTS  (thunderstorm in vicinity)
KCGC 221455Z AUTO 27005KT 10SM VCTS BKN024 BKN032 BKN043 29/23 A3009 RMK AO2 LTG DSNT ALQS

Conditions at: KCGC observed 22 July 2017  14:35 UTC
Temperature: 29.0°C (84°F)
Dewpoint: 23.0°C (73°F) [RH = 70%]
Pressure (altimeter): 30.09 inches Hg (1019.0 mb)
Winds: calm
Visibility: 10 or more miles (16+ km)
Ceiling: 4300 feet AGL
Clouds: scattered clouds at 2400 feet AGL
scattered clouds at 3400 feet AGL
broken clouds at 4300 feet AGL
Present Weather: VCTS  (thunderstorm in vicinity)
KCGC 221435Z AUTO 00000KT 10SM VCTS SCT024 SCT034 BKN043 29/23 A3009 RMK AO2 LTG DSNT S THRU NW

Conditions at: KCGC observed 22 July 2017  14:15 UTC
Temperature: 29.0°C (84°F)
Dewpoint: 23.0°C (73°F) [RH = 70%]
Pressure (altimeter): 30.09 inches Hg (1019.0 mb)
Winds: from the W (260 degrees) at 3 MPH (3 knots; 1.6 m/s)
Visibility: 10 or more miles (16+ km)
Ceiling: at least 12,000 feet AGL
Clouds: sky clear below 12,000 feet AGL
Present Weather: automated observation with no human augmentation;
there may or may not be significant weather present at this time
KCGC 221415Z AUTO 26003KT 10SM CLR 29/23 A3009 RMK AO2 LTG DSNT S THRU NW

Conditions at: KCGC observed 22 July 2017  13:55 UTC
Temperature: 28.0°C (82°F)
Dewpoint: 23.0°C (73°F) [RH = 74%]
Pressure (altimeter): 30.09 inches Hg (1019.0 mb)
Winds: from the SSW (210 degrees) at 5 MPH (4 knots; 2.1 m/s)
Visibility: 10 or more miles (16+ km)
Ceiling: at least 12,000 feet AGL
Clouds: sky clear below 12,000 feet AGL
Present Weather: automated observation with no human augmentation;
there may or may not be significant weather present at this time
KCGC 221355Z AUTO 21004KT 10SM CLR 28/23 A3009 RMK AO2 LTG DSNT SE THRU W

Conditions at: KCGC observed 22 July 2017  13:35 UTC
Temperature: 27.0°C (81°F)
Dewpoint: 23.0°C (73°F) [RH = 79%]
Pressure (altimeter): 30.09 inches Hg (1019.0 mb)
Winds: calm
Visibility: 10 or more miles (16+ km)
Ceiling: at least 12,000 feet AGL
Clouds: sky clear below 12,000 feet AGL
Present Weather: automated observation with no human augmentation;
there may or may not be significant weather present at this time
KCGC 221335Z AUTO 00000KT 10SM CLR 27/23 A3009 RMK AO2 LTG DSNT S THRU W

Conditions at: KCGC observed 22 July 2017  13:15 UTC
Temperature: 27.0°C (81°F)
Dewpoint: 23.0°C (73°F) [RH = 79%]
Pressure (altimeter): 30.09 inches Hg (1019.0 mb)
Winds: from the SW (230 degrees) at 3 MPH (3 knots; 1.6 m/s)
Visibility: 10 or more miles (16+ km)
Ceiling: at least 12,000 feet AGL
Clouds: sky clear below 12,000 feet AGL
Present Weather: automated observation with no human augmentation;
there may or may not be significant weather present at this time
KCGC 221315Z AUTO 23003KT 10SM CLR 27/23 A3009 RMK AO2 LTG DSNT S THRU W

Conditions at: KCGC observed 22 July 2017  12:55 UTC
Temperature: 28.0°C (82°F)
Dewpoint: 22.0°C (72°F) [RH = 70%]
Pressure (altimeter): 30.09 inches Hg (1019.0 mb)
Winds: from the WSW (250 degrees) at 5 MPH (4 knots; 2.1 m/s)
Visibility: 10 or more miles (16+ km)
Ceiling: at least 12,000 feet AGL
Clouds: sky clear below 12,000 feet AGL
Present Weather: TS  (thunderstorm)
KCGC 221255Z AUTO 25004KT 10SM TS CLR 28/22 A3009 RMK AO2 LTG DSNT ALQS

Conditions at: KCGC observed 22 July 2017  12:35 UTC
Temperature: 27.0°C (81°F)
Dewpoint: 24.0°C (75°F) [RH = 84%]
Pressure (altimeter): 30.09 inches Hg (1019.0 mb)
Winds: from the WSW (250 degrees) at 5 MPH (4 knots; 2.1 m/s)
Visibility: 10 or more miles (16+ km)
Ceiling: at least 12,000 feet AGL
Clouds: scattered clouds at 1400 feet AGL
scattered clouds at 2500 feet AGL
Present Weather: automated observation with no human augmentation;
there may or may not be significant weather present at this time
KCGC 221235Z AUTO 25004KT 10SM SCT014 SCT025 27/24 A3009 RMK AO2 LTG DSNT S THRU N

Conditions at: KCGC observed 22 July 2017  12:15 UTC
Temperature: 26.0°C (79°F)
Dewpoint: 23.0°C (73°F) [RH = 84%]
Pressure (altimeter): 30.08 inches Hg (1018.7 mb)
Winds: calm
Visibility: 10 or more miles (16+ km)
Ceiling: at least 12,000 feet AGL
Clouds: scattered clouds at 5000 feet AGL
Present Weather: TS  (thunderstorm)
KCGC 221215Z AUTO 00000KT 10SM TS SCT050 26/23 A3008 RMK AO2 LTG DSNT S THRU NW

Conditions at: KCGC observed 22 July 2017  11:55 UTC
Temperature: 25.0°C (77°F)
Dewpoint: 23.0°C (73°F) [RH = 89%]
Pressure (altimeter): 30.07 inches Hg (1018.4 mb)
Winds: calm
Visibility: 10 or more miles (16+ km)
Ceiling: 5000 feet AGL
Clouds: broken clouds at 5000 feet AGL
Present Weather: TS  (thunderstorm)
KCGC 221155Z AUTO 00000KT 10SM TS BKN050 25/23 A3007 RMK AO2 LTG DSNT S THRU NW

Conditions at: KCGC observed 22 July 2017  11:35 UTC
Temperature: 24.0°C (75°F)
Dewpoint: 22.0°C (72°F) [RH = 89%]
Pressure (altimeter): 30.06 inches Hg (1018.0 mb)
Winds: from the SE (140 degrees) at 3 MPH (3 knots; 1.6 m/s)
Visibility: 10 or more miles (16+ km)
Ceiling: at least 12,000 feet AGL
Clouds: scattered clouds at 4800 feet AGL
Present Weather: VCTS  (thunderstorm in vicinity)
KCGC 221135Z AUTO 14003KT 10SM VCTS SCT048 24/22 A3006 RMK AO2 LTG DSNT S THRU NW

Conditions at: KCGC observed 22 July 2017  11:15 UTC
Temperature: 23.0°C (73°F)
Dewpoint: 22.0°C (72°F) [RH = 94%]
Pressure (altimeter): 30.05 inches Hg (1017.7 mb)
Winds: calm
Visibility: 10 or more miles (16+ km)
Ceiling: at least 12,000 feet AGL
Clouds: sky clear below 12,000 feet AGL
Present Weather: VCTS  (thunderstorm in vicinity)
KCGC 221115Z AUTO 00000KT 10SM VCTS CLR 23/22 A3005 RMK AO2 LTG DSNT S THRU NW

Conditions at: KCGC observed 22 July 2017  10:55 UTC
Temperature: 22.0°C (72°F)
Dewpoint: 22.0°C (72°F) [RH = 100%]
Pressure (altimeter): 30.05 inches Hg (1017.7 mb)
Winds: calm
Visibility: 10 or more miles (16+ km)
Ceiling: at least 12,000 feet AGL
Clouds: sky clear below 12,000 feet AGL
Present Weather: VCTS  (thunderstorm in vicinity)
KCGC 221055Z AUTO 00000KT 10SM VCTS CLR 22/22 A3005 RMK AO2 LTG DSNT SW THRU NW

Conditions at: KCGC observed 22 July 2017  10:35 UTC
Temperature: 22.0°C (72°F)
Dewpoint: 22.0°C (72°F) [RH = 100%]
Pressure (altimeter): 30.04 inches Hg (1017.4 mb)
Winds: calm
Visibility: 10 or more miles (16+ km)
Ceiling: at least 12,000 feet AGL
Clouds: sky clear below 12,000 feet AGL
Present Weather: VCTS  (thunderstorm in vicinity)
KCGC 221035Z AUTO 00000KT 10SM VCTS CLR 22/22 A3004 RMK AO2 LTG DSNT SW AND W

Conditions at: KCGC observed 22 July 2017  10:15 UTC
Temperature: 23.0°C (73°F)
Dewpoint: 22.0°C (72°F) [RH = 94%]
Pressure (altimeter): 30.03 inches Hg (1017.0 mb)
Winds: calm
Visibility: 10 or more miles (16+ km)
Ceiling: at least 12,000 feet AGL
Clouds: sky clear below 12,000 feet AGL
Present Weather: automated observation with no human augmentation;
there may or may not be significant weather present at this time
KCGC 221015Z AUTO 00000KT 10SM CLR 23/22 A3003 RMK AO2 LTG DSNT SW AND W

Conditions at: KCGC observed 22 July 2017  09:55 UTC
Temperature: 22.0°C (72°F)
Dewpoint: 22.0°C (72°F) [RH = 100%]
Pressure (altimeter): 30.03 inches Hg (1017.0 mb)
Winds: calm
Visibility: 10 or more miles (16+ km)
Ceiling: at least 12,000 feet AGL
Clouds: sky clear below 12,000 feet AGL
Present Weather: automated observation with no human augmentation;
there may or may not be significant weather present at this time
KCGC 220955Z AUTO 00000KT 10SM CLR 22/22 A3003 RMK AO2 LTG DSNT S THRU W

Conditions at: KCGC observed 22 July 2017  09:35 UTC
Temperature: 22.0°C (72°F)
Dewpoint: 22.0°C (72°F) [RH = 100%]
Pressure (altimeter): 30.03 inches Hg (1017.0 mb)
Winds: calm
Visibility: 10 or more miles (16+ km)
Ceiling: at least 12,000 feet AGL
Clouds: sky clear below 12,000 feet AGL
Present Weather: automated observation with no human augmentation;
there may or may not be significant weather present at this time
KCGC 220935Z AUTO 00000KT 10SM CLR 22/22 A3003 RMK AO2 LTG DSNT SW

Conditions at: KCGC observed 22 July 2017  09:15 UTC
Temperature: 22.0°C (72°F)
Dewpoint: 22.0°C (72°F) [RH = 100%]
Pressure (altimeter): 30.02 inches Hg (1016.7 mb)
Winds: calm
Visibility: 10 or more miles (16+ km)
Ceiling: at least 12,000 feet AGL
Clouds: sky clear below 12,000 feet AGL
Present Weather: automated observation with no human augmentation;
there may or may not be significant weather present at this time
KCGC 220915Z AUTO 00000KT 10SM CLR 22/22 A3002 RMK AO2 LTG DSNT S AND SW

Conditions at: KCGC observed 22 July 2017  08:55 UTC
Temperature: 22.0°C (72°F)
Dewpoint: 22.0°C (72°F) [RH = 100%]
Pressure (altimeter): 30.02 inches Hg (1016.7 mb)
Winds: calm
Visibility: 10 or more miles (16+ km)
Ceiling: at least 12,000 feet AGL
Clouds: sky clear below 12,000 feet AGL
Present Weather: automated observation with no human augmentation;
there may or may not be significant weather present at this time
KCGC 220855Z AUTO 00000KT 10SM CLR 22/22 A3002 RMK AO2